Omega, Louisiana
Current Conditions -  °F | °C
As of 12:53 AM on Monday 22 Dec 2014 (Local Time) from KTVR Reporting Station
Broken Clouds Broken Clouds  
Wind Chill: 50°   Ceiling: 900
Heat Index: 50°   Visibility: 7mi
Dew Point: 47°   Wind: 12mph
Humidity: 89%   Direction: 140°SE
Pressure: 29.9"   Gusts: NA
Location:  32.5752°N, 91.2825°W
Report Text: KTVR 220653Z AUTO 14010KT 7SM BKN009 10/08 A2990 RMK AO2 SLP130 T01000083
Loading
Personal Weather Stations






























Interactive Weather Map New forecast layout! Learn more

10-Day Weather Forecast

Advertisements
Track Severe Weather on mobile